UCT Elwood — V7HW9 — position and weather

sailwx.info

Track history (hours):
 
Tides and Currents Weather Stations Pressure Air Temp Water Temp Dewpoint Dewpoint Depression Visibility Wind Speed Wind Dir Waves Ship Positions

UCT Elwood

Last reported at 2015-Mar-24 07:33 UTC. Time now 2015-Mar-29 17:26 UTC.
Position N 46°12' W 124°20'.

Type: Ship (hazmat cat B). MMSI: 538002324.

Date/timePositionNaut miles runAvg speedWind from/ knotsBaromVisibWave heightAir tempDewpointWater temp
2015-Mar-24 07:33N 46°12' W 124°20'8 8.5
2015-Mar-24 06:34N 46°14' W 124°08'9 8.6
2015-Mar-24 05:34N 46°12' W 123°55'1110.6
2015-Mar-24 04:33N 46°15' W 123°41'  
2015-Mar-19 01:29N 45°36' W 122°47'0 0.0
2015-Mar-19 00:29N 45°36' W 122°47'0 0.0
2015-Mar-18 23:23N 45°36' W 122°47'0 0.0
2015-Mar-18 22:29N 45°36' W 122°47'0 0.0
2015-Mar-18 21:29N 45°36' W 122°47'0 0.0
2015-Mar-18 20:29N 45°36' W 122°47'0 0.0
2015-Mar-18 19:29N 45°36' W 122°47'0 0.0
2015-Mar-18 18:29N 45°36' W 122°47'0 0.0
2015-Mar-18 17:29N 45°36' W 122°47'0 0.0
2015-Mar-18 16:29N 45°36' W 122°47'0 0.0
2015-Mar-18 15:29N 45°36' W 122°47'0 0.3
2015-Mar-18 14:33N 45°37' W 122°47'8 7.5
2015-Mar-18 13:33N 45°44' W 122°46'45 8.9
2015-Mar-18 08:33N 46°16' W 123°30'1312.8
2015-Mar-18 07:33N 46°12' W 123°48'9 9.4
2015-Mar-18 06:33N 46°15' W 124°01'1212.0
2015-Mar-18 05:33N 46°12' W 124°17'9 1.8
2015-Mar-18 00:28N 46°13' W 124°31'13611.9
2015-Mar-17 13:03N 46°13' W 127°48'  
Track history (hours):
 
Tides and Currents Weather Stations Pressure Air Temp Water Temp Dewpoint Dewpoint Depression Visibility Wind Speed Wind Dir Waves Ship Positions

UCT Elwood

Last reported at 2015-Mar-24 07:33 UTC. Time now 2015-Mar-29 17:26 UTC.
Position N 46°12' W 124°20'.

Type: Ship (hazmat cat B). MMSI: 538002324.

Date/timePositionNaut miles runAvg speedWind from/ knotsBaromVisibWave heightAir tempDewpointWater temp
2015-Mar-24 07:33N 46°12' W 124°20'8 8.5
2015-Mar-24 06:34N 46°14' W 124°08'9 8.6
2015-Mar-24 05:34N 46°12' W 123°55'1110.6
2015-Mar-24 04:33N 46°15' W 123°41'  
2015-Mar-19 01:29N 45°36' W 122°47'0 0.0
2015-Mar-19 00:29N 45°36' W 122°47'0 0.0
2015-Mar-18 23:23N 45°36' W 122°47'0 0.0
2015-Mar-18 22:29N 45°36' W 122°47'0 0.0
2015-Mar-18 21:29N 45°36' W 122°47'0 0.0
2015-Mar-18 20:29N 45°36' W 122°47'0 0.0
2015-Mar-18 19:29N 45°36' W 122°47'0 0.0
2015-Mar-18 18:29N 45°36' W 122°47'0 0.0
2015-Mar-18 17:29N 45°36' W 122°47'0 0.0
2015-Mar-18 16:29N 45°36' W 122°47'0 0.0
2015-Mar-18 15:29N 45°36' W 122°47'0 0.3
2015-Mar-18 14:33N 45°37' W 122°47'8 7.5
2015-Mar-18 13:33N 45°44' W 122°46'45 8.9
2015-Mar-18 08:33N 46°16' W 123°30'1312.8
2015-Mar-18 07:33N 46°12' W 123°48'9 9.4
2015-Mar-18 06:33N 46°15' W 124°01'1212.0
2015-Mar-18 05:33N 46°12' W 124°17'9 1.8
2015-Mar-18 00:28N 46°13' W 124°31'13611.9
2015-Mar-17 13:03N 46°13' W 127°48'  

Dump ship's entire track history